Time;durP1;ratioP1;P1;durP2;ratioP2;P2;SDS_P1;SDS_P2;PMS_P1;PMS_P2;Temp;Humidity;BMP_temperature;BMP_pressure;BME280_temperature;BME280_humidity;BME280_pressure;Samples;Min_cycle;Max_cycle;Signal;HPM_P1;HPM_P2
2021/12/31 00:01:12;;;;;;;1.98;0.60;;;;;;;;;;6221584;28;20049;-80
2021/12/31 00:04:14;;;;;;;1.42;0.75;;;;;;;;;;6224129;28;20068;-80
2021/12/31 00:07:16;;;;;;;1.42;0.80;;;;;;;;;;6223743;28;20048;-80
2021/12/31 00:10:18;;;;;;;1.85;1.00;;;;;;;;;;6222915;28;20034;-80
2021/12/31 00:13:20;;;;;;;1.17;0.75;;;;;;;;;;6225043;28;20418;-79
2021/12/31 00:16:21;;;;;;;1.85;0.80;;;;;;;;;;6209913;28;20046;-80
2021/12/31 00:19:25;;;;;;;2.15;0.60;;;;;;;;;;6201796;28;20052;-80
2021/12/31 00:25:33;;;;;;;1.13;0.80;;;;;;;;;;6223496;28;20048;-80
2021/12/31 00:28:35;;;;;;;0.70;0.70;;;;;;;;;;6226139;28;20101;-80
2021/12/31 00:31:37;;;;;;;1.08;0.80;;;;;;;;;;6223608;28;20128;-80
2021/12/31 00:34:38;;;;;;;0.85;0.70;;;;;;;;;;6226417;28;20518;-80
2021/12/31 00:37:40;;;;;;;1.52;0.88;;;;;;;;;;6225655;28;20038;-80
2021/12/31 00:40:42;;;;;;;1.10;0.80;;;;;;;;;;6223978;28;20033;-80
2021/12/31 00:43:43;;;;;;;1.23;0.80;;;;;;;;;;6225612;28;20048;-80
2021/12/31 00:46:47;;;;;;;1.10;0.98;;;;;;;;;;6223281;28;20046;-80
2021/12/31 00:49:48;;;;;;;2.25;0.77;;;;;;;;;;6223180;28;20060;-80
2021/12/31 00:52:50;;;;;;;0.90;0.80;;;;;;;;;;6223819;28;20109;-81
2021/12/31 00:55:51;;;;;;;1.45;0.98;;;;;;;;;;6225317;28;20105;-81
2021/12/31 00:58:53;;;;;;;3.80;0.80;;;;;;;;;;6222917;28;20053;-80
2021/12/31 01:01:56;;;;;;;0.80;0.80;;;;;;;;;;6223364;28;20034;-80
2021/12/31 01:04:58;;;;;;;3.13;1.40;;;;;;;;;;6224071;28;20054;-80
2021/12/31 01:08:00;;;;;;;1.65;0.90;;;;;;;;;;6225671;28;20137;-80
2021/12/31 01:11:02;;;;;;;3.15;1.20;;;;;;;;;;6238209;28;20064;-80
2021/12/31 01:14:08;;;;;;;2.90;0.95;;;;;;;;;;6224996;28;20141;-80
2021/12/31 01:17:13;;;;;;;1.77;0.90;;;;;;;;;;6222505;28;20049;-80
2021/12/31 01:20:17;;;;;;;4.63;1.10;;;;;;;;;;6225070;28;20040;-80
2021/12/31 01:23:18;;;;;;;1.33;1.00;;;;;;;;;;6221536;28;20065;-80
2021/12/31 01:26:20;;;;;;;2.85;1.05;;;;;;;;;;6224108;28;20133;-80
2021/12/31 01:29:22;;;;;;;2.97;1.00;;;;;;;;;;6222129;28;20038;-81
2021/12/31 01:32:24;;;;;;;1.60;1.10;;;;;;;;;;6221376;28;20049;-80
2021/12/31 01:35:26;;;;;;;2.30;1.30;;;;;;;;;;6225482;28;20490;-80
2021/12/31 01:38:28;;;;;;;1.75;1.10;;;;;;;;;;6218206;28;20563;-80
2021/12/31 01:41:30;;;;;;;2.17;1.30;;;;;;;;;;6215490;28;20044;-80
2021/12/31 01:44:38;;;;;;;3.15;1.38;;;;;;;;;;6221202;28;20100;-80
2021/12/31 01:50:54;;;;;;;2.20;1.30;;;;;;;;;;6220970;28;20092;-80
2021/12/31 01:53:56;;;;;;;2.20;1.60;;;;;;;;;;6220371;28;20052;-80
2021/12/31 01:57:04;;;;;;;3.20;1.58;;;;;;;;;;6226929;28;20102;-80
2021/12/31 02:00:06;;;;;;;3.58;1.70;;;;;;;;;;6223972;28;20125;-80
2021/12/31 02:03:08;;;;;;;3.33;1.40;;;;;;;;;;6228248;28;20124;-80
2021/12/31 02:06:10;;;;;;;4.28;1.88;;;;;;;;;;6228270;28;20448;-79
2021/12/31 02:09:13;;;;;;;2.83;1.70;;;;;;;;;;6225031;28;20042;-80
2021/12/31 02:12:16;;;;;;;2.63;1.90;;;;;;;;;;6209503;28;20116;-80
2021/12/31 02:15:20;;;;;;;5.13;2.30;;;;;;;;;;6235004;28;20049;-80
2021/12/31 02:18:21;;;;;;;4.35;2.20;;;;;;;;;;6243316;28;20113;-80
2021/12/31 02:21:23;;;;;;;4.38;2.17;;;;;;;;;;6226297;28;20101;-80
2021/12/31 02:24:25;;;;;;;4.57;2.22;;;;;;;;;;6240379;28;20113;-80
2021/12/31 02:27:27;;;;;;;4.50;2.70;;;;;;;;;;6224791;28;20826;-79
2021/12/31 02:30:29;;;;;;;4.97;2.17;;;;;;;;;;6225690;28;20054;-80
2021/12/31 02:33:31;;;;;;;5.93;2.53;;;;;;;;;;6226647;28;20084;-80
2021/12/31 02:36:33;;;;;;;5.35;2.45;;;;;;;;;;6231264;28;20047;-80
2021/12/31 02:39:38;;;;;;;4.97;2.20;;;;;;;;;;6201566;28;20110;-79
2021/12/31 02:42:40;;;;;;;6.25;2.42;;;;;;;;;;6226455;28;20105;-78
2021/12/31 02:45:42;;;;;;;5.67;2.20;;;;;;;;;;6235706;28;20113;-80
2021/12/31 02:48:44;;;;;;;5.47;2.53;;;;;;;;;;6239910;28;20068;-79
2021/12/31 02:51:46;;;;;;;4.45;2.92;;;;;;;;;;6250777;28;20739;-79
2021/12/31 02:54:49;;;;;;;6.18;2.55;;;;;;;;;;6246183;28;20038;-79
2021/12/31 02:57:51;;;;;;;6.05;3.03;;;;;;;;;;6249382;28;20049;-79
2021/12/31 03:00:53;;;;;;;7.90;3.00;;;;;;;;;;6236594;28;20104;-79
2021/12/31 03:03:56;;;;;;;6.30;2.92;;;;;;;;;;6228875;28;20053;-79
2021/12/31 03:06:59;;;;;;;6.68;2.85;;;;;;;;;;6223687;28;20046;-80
2021/12/31 03:10:02;;;;;;;5.35;2.80;;;;;;;;;;6221416;28;20198;-80
2021/12/31 03:13:06;;;;;;;5.18;2.95;;;;;;;;;;6228436;28;20125;-78
2021/12/31 03:16:07;;;;;;;;;;;;;;;;;;6220332;28;20123;-79
2021/12/31 03:19:10;;;;;;;4.05;2.60;;;;;;;;;;6237230;28;19943;-78
2021/12/31 03:22:11;;;;;;;7.00;2.63;;;;;;;;;;6249973;28;20051;-79
2021/12/31 03:25:13;;;;;;;4.80;2.80;;;;;;;;;;6235917;28;20117;-79
2021/12/31 03:28:15;;;;;;;8.15;3.20;;;;;;;;;;6246225;28;20101;-79
2021/12/31 03:31:16;;;;;;;3.63;2.40;;;;;;;;;;6233080;28;20415;-79
2021/12/31 03:34:18;;;;;;;7.05;3.42;;;;;;;;;;6232542;28;20061;-80
2021/12/31 03:37:20;;;;;;;9.90;2.88;;;;;;;;;;6225545;28;20048;-80
2021/12/31 03:40:22;;;;;;;7.25;2.88;;;;;;;;;;6217214;28;20037;-79
2021/12/31 03:43:24;;;;;;;7.23;2.43;;;;;;;;;;6224273;28;20105;-79
2021/12/31 03:46:25;;;;;;;5.90;2.72;;;;;;;;;;6224316;28;20445;-80
2021/12/31 03:49:27;;;;;;;4.80;2.67;;;;;;;;;;6223802;28;20049;-79
2021/12/31 03:52:29;;;;;;;10.45;2.70;;;;;;;;;;6223773;28;20046;-79
2021/12/31 03:55:30;;;;;;;5.45;2.78;;;;;;;;;;6217834;28;20052;-80
2021/12/31 03:58:32;;;;;;;5.47;2.67;;;;;;;;;;6224601;28;20058;-79
2021/12/31 04:01:33;;;;;;;5.05;2.67;;;;;;;;;;6221427;28;20399;-79
2021/12/31 04:04:35;;;;;;;6.22;2.47;;;;;;;;;;6225379;28;20042;-79
2021/12/31 04:07:37;;;;;;;6.07;2.53;;;;;;;;;;6223684;28;20041;-80
2021/12/31 04:10:39;;;;;;;6.47;2.95;;;;;;;;;;6222656;28;20056;-80
2021/12/31 04:13:40;;;;;;;7.22;2.92;;;;;;;;;;6222812;28;20184;-80
2021/12/31 04:16:42;;;;;;;4.88;2.42;;;;;;;;;;6190146;28;20041;-80
2021/12/31 04:19:44;;;;;;;5.38;2.72;;;;;;;;;;6222357;28;20050;-80
2021/12/31 04:22:53;;;;;;;9.43;2.90;;;;;;;;;;6223023;28;20052;-79
2021/12/31 04:25:56;;;;;;;8.38;2.53;;;;;;;;;;6224624;28;20133;-80
2021/12/31 04:28:58;;;;;;;5.80;2.17;;;;;;;;;;6225429;28;20046;-80
2021/12/31 04:32:03;;;;;;;3.65;2.35;;;;;;;;;;6213495;28;20066;-80
2021/12/31 04:35:06;;;;;;;10.20;2.55;;;;;;;;;;6220465;28;20053;-78
2021/12/31 04:38:08;;;;;;;5.60;2.50;;;;;;;;;;6222893;28;20596;-80
2021/12/31 04:41:09;;;;;;;8.57;2.70;;;;;;;;;;6219291;28;20096;-79
2021/12/31 04:44:11;;;;;;;5.65;2.50;;;;;;;;;;6221600;28;20057;-79
2021/12/31 04:47:12;;;;;;;6.32;2.40;;;;;;;;;;6212182;28;20034;-79
2021/12/31 04:50:14;;;;;;;3.38;2.05;;;;;;;;;;6211562;28;20040;-80
2021/12/31 04:53:16;;;;;;;6.30;2.85;;;;;;;;;;6222159;28;20064;-79
2021/12/31 04:56:17;;;;;;;7.80;3.20;;;;;;;;;;6217064;28;20125;-80
2021/12/31 04:59:20;;;;;;;4.50;2.47;;;;;;;;;;6220831;28;20042;-80
2021/12/31 05:02:27;;;;;;;5.78;2.25;;;;;;;;;;6222275;28;20169;-79
2021/12/31 05:05:28;;;;;;;8.90;2.88;;;;;;;;;;6222550;28;20040;-80
2021/12/31 05:08:30;;;;;;;4.93;2.42;;;;;;;;;;6221011;28;20048;-80
2021/12/31 05:11:32;;;;;;;3.13;2.05;;;;;;;;;;6214432;28;20064;-79
2021/12/31 05:14:34;;;;;;;3.92;2.00;;;;;;;;;;6221222;28;20061;-79
2021/12/31 05:17:36;;;;;;;5.30;2.30;;;;;;;;;;6223496;28;20064;-80
2021/12/31 05:20:38;;;;;;;4.75;2.35;;;;;;;;;;6221587;28;20110;-80
2021/12/31 05:23:39;;;;;;;4.00;2.55;;;;;;;;;;6225729;28;20041;-80
2021/12/31 05:26:41;;;;;;;5.53;2.30;;;;;;;;;;6216499;28;20168;-79
2021/12/31 05:29:42;;;;;;;7.18;2.42;;;;;;;;;;6219663;28;20050;-79
2021/12/31 05:32:45;;;;;;;6.72;2.38;;;;;;;;;;6226461;28;20048;-80
2021/12/31 05:35:47;;;;;;;4.20;2.28;;;;;;;;;;6228320;28;20046;-80
2021/12/31 05:38:48;;;;;;;5.80;2.90;;;;;;;;;;6238168;28;20068;-80
2021/12/31 05:41:50;;;;;;;5.78;2.38;;;;;;;;;;6226757;28;20048;-80
2021/12/31 05:44:52;;;;;;;5.43;2.38;;;;;;;;;;6226539;28;20105;-80
2021/12/31 05:47:54;;;;;;;4.57;2.58;;;;;;;;;;6240909;28;20136;-80
2021/12/31 05:50:59;;;;;;;5.85;2.75;;;;;;;;;;6227485;28;20044;-79
2021/12/31 05:54:00;;;;;;;5.85;2.47;;;;;;;;;;6225423;28;20118;-80
2021/12/31 05:57:02;;;;;;;6.60;2.53;;;;;;;;;;6227466;28;20124;-79
2021/12/31 06:00:05;;;;;;;6.60;3.30;;;;;;;;;;6219663;28;20046;-80
2021/12/31 06:03:07;;;;;;;5.53;2.60;;;;;;;;;;6224282;28;20070;-79
2021/12/31 06:06:08;;;;;;;6.50;2.40;;;;;;;;;;6226932;28;20049;-80
2021/12/31 06:09:13;;;;;;;5.43;2.53;;;;;;;;;;6223026;28;20775;-80
2021/12/31 06:12:14;;;;;;;5.25;2.63;;;;;;;;;;6223481;28;20052;-80
2021/12/31 06:15:18;;;;;;;4.15;2.55;;;;;;;;;;6233412;28;20046;-79
2021/12/31 06:18:20;;;;;;;3.80;2.60;;;;;;;;;;6223531;28;20038;-80
2021/12/31 06:21:22;;;;;;;6.22;2.72;;;;;;;;;;6231466;28;20047;-80
2021/12/31 06:24:23;;;;;;;5.22;2.70;;;;;;;;;;6232554;28;20052;-80
2021/12/31 06:27:26;;;;;;;9.55;2.95;;;;;;;;;;6225328;28;20049;-80
2021/12/31 06:30:28;;;;;;;5.53;3.22;;;;;;;;;;6222772;28;20034;-80
2021/12/31 06:33:29;;;;;;;5.55;2.90;;;;;;;;;;6215690;28;20121;-80
2021/12/31 06:36:31;;;;;;;4.75;2.80;;;;;;;;;;6219677;28;20049;-80
2021/12/31 06:39:35;;;;;;;5.63;2.60;;;;;;;;;;6222213;28;20045;-79
2021/12/31 06:42:36;;;;;;;7.35;3.30;;;;;;;;;;6217808;28;20043;-79
2021/12/31 06:45:39;;;;;;;4.05;2.92;;;;;;;;;;6224082;28;20053;-79
2021/12/31 06:48:41;;;;;;;7.32;3.03;;;;;;;;;;6218386;28;20054;-79
2021/12/31 06:51:46;;;;;;;5.25;3.30;;;;;;;;;;6207399;28;20056;-79
2021/12/31 06:54:49;;;;;;;;;;;;;;;;;;6225664;28;20042;-79
2021/12/31 06:57:52;;;;;;;7.25;3.00;;;;;;;;;;6208516;28;20420;-78
2021/12/31 07:00:54;;;;;;;6.85;3.10;;;;;;;;;;6221683;28;20073;-78
2021/12/31 07:03:58;;;;;;;4.95;3.03;;;;;;;;;;6224540;28;20070;-78
2021/12/31 07:07:00;;;;;;;6.15;3.30;;;;;;;;;;6237281;28;20046;-79
2021/12/31 07:10:05;;;;;;;5.70;3.20;;;;;;;;;;6222584;28;20050;-79
2021/12/31 07:13:10;;;;;;;6.20;3.17;;;;;;;;;;6222570;28;20430;-78
2021/12/31 07:16:12;;;;;;;6.15;3.38;;;;;;;;;;6213276;28;20093;-78
2021/12/31 07:19:14;;;;;;;6.32;3.53;;;;;;;;;;6223086;28;20069;-78
2021/12/31 07:22:15;;;;;;;7.13;3.28;;;;;;;;;;6222852;28;20121;-79
2021/12/31 07:25:17;;;;;;;5.82;3.45;;;;;;;;;;6219580;28;20041;-77
2021/12/31 07:28:18;;;;;;;8.05;3.85;;;;;;;;;;6210347;28;20038;-78
2021/12/31 07:31:20;;;;;;;8.30;3.15;;;;;;;;;;6210997;28;20042;-80
2021/12/31 07:34:22;;;;;;;7.38;3.60;;;;;;;;;;6209567;28;20077;-80
2021/12/31 07:37:24;;;;;;;6.10;3.33;;;;;;;;;;6222725;28;20050;-80
2021/12/31 07:40:37;;;;;;;6.35;3.65;;;;;;;;;;6222027;28;20406;-81
2021/12/31 07:43:39;;;;;;;4.53;3.15;;;;;;;;;;6220798;28;20044;-80
2021/12/31 07:46:43;;;;;;;5.85;3.47;;;;;;;;;;6221247;28;20053;-80
2021/12/31 07:49:45;;;;;;;8.70;4.15;;;;;;;;;;6221007;28;20053;-80
2021/12/31 07:52:47;;;;;;;5.63;3.40;;;;;;;;;;6213876;28;20098;-80
2021/12/31 07:55:50;;;;;;;6.93;3.65;;;;;;;;;;6213197;28;20046;-80
2021/12/31 07:58:51;;;;;;;6.15;3.42;;;;;;;;;;6218431;28;20045;-81
2021/12/31 08:01:53;;;;;;;5.47;3.47;;;;;;;;;;6221480;28;20044;-81
2021/12/31 08:04:55;;;;;;;6.07;3.40;;;;;;;;;;6224042;28;20065;-80
2021/12/31 08:07:57;;;;;;;6.38;3.42;;;;;;;;;;6219531;28;20038;-80
2021/12/31 08:10:58;;;;;;;5.88;3.95;;;;;;;;;;6220831;28;20099;-80
2021/12/31 08:14:00;;;;;;;6.07;3.80;;;;;;;;;;6223734;28;20034;-80
2021/12/31 08:17:01;;;;;;;6.22;3.90;;;;;;;;;;6222647;28;20042;-80
2021/12/31 08:20:04;;;;;;;5.65;3.35;;;;;;;;;;6222180;28;20049;-79
2021/12/31 08:23:09;;;;;;;13.77;4.35;;;;;;;;;;6218279;28;20065;-81
2021/12/31 08:26:10;;;;;;;7.10;2.70;;;;;;;;;;6214678;28;20045;-80
2021/12/31 08:29:13;;;;;;;5.15;2.78;;;;;;;;;;6222003;28;20049;-79
2021/12/31 08:32:15;;;;;;;6.97;4.32;;;;;;;;;;6210391;28;20040;-80
2021/12/31 08:35:17;;;;;;;4.72;2.90;;;;;;;;;;6221778;28;20066;-79
2021/12/31 08:38:18;;;;;;;8.07;3.63;;;;;;;;;;6218060;28;20544;-80
2021/12/31 08:41:20;;;;;;;4.82;3.20;;;;;;;;;;6221363;28;20046;-80
2021/12/31 08:44:41;;;;;;;7.72;3.38;;;;;;;;;;6212749;28;20057;-80
2021/12/31 08:47:43;;;;;;;5.10;2.85;;;;;;;;;;6209539;28;20106;-80
2021/12/31 08:50:45;;;;;;;4.20;2.80;;;;;;;;;;6220463;28;20045;-81
2021/12/31 08:53:47;;;;;;;5.85;2.42;;;;;;;;;;6222221;28;20053;-81
2021/12/31 08:56:48;;;;;;;5.57;3.38;;;;;;;;;;6221770;28;20140;-80
2021/12/31 08:59:55;;;;;;;4.38;2.60;;;;;;;;;;6213742;28;20041;-80
2021/12/31 09:02:57;;;;;;;4.18;2.70;;;;;;;;;;6208502;28;20084;-81
2021/12/31 09:05:58;;;;;;;4.95;2.45;;;;;;;;;;6236092;28;20044;-80
2021/12/31 09:09:00;;;;;;;7.25;2.28;;;;;;;;;;6220877;28;20049;-79
2021/12/31 09:12:02;;;;;;;3.65;2.20;;;;;;;;;;6215274;28;20042;-80
2021/12/31 09:15:05;;;;;;;4.13;2.17;;;;;;;;;;6238330;28;20641;-80
2021/12/31 09:18:06;;;;;;;4.38;2.20;;;;;;;;;;6222507;28;20283;-80
2021/12/31 09:21:08;;;;;;;3.05;1.60;;;;;;;;;;6221683;28;20122;-79
2021/12/31 09:24:10;;;;;;;7.13;1.92;;;;;;;;;;6217696;28;20053;-80
2021/12/31 09:27:11;;;;;;;3.15;1.80;;;;;;;;;;6215598;28;20924;-79
2021/12/31 09:30:13;;;;;;;4.38;1.70;;;;;;;;;;6216505;28;20038;-80
2021/12/31 09:33:14;;;;;;;4.38;1.90;;;;;;;;;;6221019;28;20083;-80
2021/12/31 09:36:16;;;;;;;4.63;1.55;;;;;;;;;;6213721;28;20041;-79
2021/12/31 09:39:18;;;;;;;2.92;1.83;;;;;;;;;;6209939;28;20439;-80
2021/12/31 09:42:19;;;;;;;2.67;1.67;;;;;;;;;;6217785;28;20097;-79
2021/12/31 09:45:21;;;;;;;2.42;1.38;;;;;;;;;;6219887;28;20034;-79
2021/12/31 09:48:24;;;;;;;3.58;1.75;;;;;;;;;;6219276;28;20042;-79
2021/12/31 09:51:25;;;;;;;2.78;1.58;;;;;;;;;;6220822;28;20049;-80
2021/12/31 09:54:27;;;;;;;4.35;1.42;;;;;;;;;;6202678;28;20038;-79
2021/12/31 09:57:29;;;;;;;5.00;1.40;;;;;;;;;;6196455;28;20056;-79
2021/12/31 10:00:31;;;;;;;2.53;1.50;;;;;;;;;;6219608;28;20105;-78
2021/12/31 10:03:34;;;;;;;1.13;1.02;;;;;;;;;;6217306;28;20042;-80
2021/12/31 10:06:36;;;;;;;3.83;1.52;;;;;;;;;;6218612;28;20376;-79
2021/12/31 10:09:41;;;;;;;4.30;1.52;;;;;;;;;;6218086;28;20056;-79
2021/12/31 10:12:47;;;;;;;4.35;1.20;;;;;;;;;;6218064;28;20075;-80
2021/12/31 10:15:51;;;;;;;1.50;1.33;;;;;;;;;;6209165;28;20813;-79
2021/12/31 10:19:11;;;;;;;2.33;1.17;;;;;;;;;;6219773;28;20046;-81
2021/12/31 10:22:17;;;;;;;2.72;1.45;;;;;;;;;;6207653;28;20050;-79
2021/12/31 10:25:20;;;;;;;4.15;1.40;;;;;;;;;;6222694;28;20407;-80
2021/12/31 10:28:22;;;;;;;;;;;;;;;;;;6222381;28;20491;-80
2021/12/31 10:31:24;;;;;;;3.78;1.20;;;;;;;;;;6209085;28;19921;-79
2021/12/31 10:34:37;;;;;;;4.75;1.88;;;;;;;;;;6220038;28;20448;-79
2021/12/31 10:37:47;;;;;;;2.70;1.50;;;;;;;;;;6227173;28;20101;-79
2021/12/31 10:40:49;;;;;;;2.45;1.40;;;;;;;;;;6223960;28;20045;-79
2021/12/31 10:43:58;;;;;;;3.50;1.60;;;;;;;;;;6210843;28;20095;-79
2021/12/31 10:47:11;;;;;;;1.60;1.35;;;;;;;;;;6214917;28;20038;-79
2021/12/31 10:50:19;;;;;;;2.85;1.58;;;;;;;;;;6222571;28;20065;-78
2021/12/31 10:53:34;;;;;;;2.53;1.35;;;;;;;;;;6220418;28;20102;-79
2021/12/31 10:56:40;;;;;;;4.82;1.42;;;;;;;;;;6225540;28;20041;-78
2021/12/31 10:59:42;;;;;;;1.88;1.25;;;;;;;;;;6220423;28;20134;-79
2021/12/31 11:02:43;;;;;;;1.58;1.30;;;;;;;;;;6224475;28;20046;-79
2021/12/31 11:05:45;;;;;;;3.95;1.42;;;;;;;;;;6225614;28;20049;-78
2021/12/31 11:08:49;;;;;;;1.13;1.00;;;;;;;;;;6222231;28;20068;-79
2021/12/31 11:11:53;;;;;;;2.97;1.35;;;;;;;;;;6217993;28;20049;-79
2021/12/31 11:14:54;;;;;;;;;;;;;;;;;;6222559;28;20129;-79
2021/12/31 11:17:58;;;;;;;;;;;;;;;;;;6222963;28;19972;-79
2021/12/31 11:21:06;;;;;;;2.78;1.20;;;;;;;;;;6226348;28;20438;-79
2021/12/31 11:24:28;;;;;;;2.00;1.60;;;;;;;;;;6225924;28;20097;-79
2021/12/31 11:27:31;;;;;;;3.45;1.58;;;;;;;;;;6220156;28;20046;-79
2021/12/31 11:30:34;;;;;;;2.75;1.30;;;;;;;;;;6217348;28;20129;-79
2021/12/31 11:33:35;;;;;;;2.03;1.60;;;;;;;;;;6220115;28;20045;-82
2021/12/31 11:36:52;;;;;;;4.07;1.40;;;;;;;;;;6221046;28;20098;-82
2021/12/31 11:40:33;;;;;;;3.85;1.40;;;;;;;;;;6226766;28;20042;-79
2021/12/31 11:43:39;;;;;;;1.85;1.30;;;;;;;;;;6207520;28;20151;-80
2021/12/31 11:46:42;;;;;;;1.83;1.20;;;;;;;;;;6214862;28;20119;-80
2021/12/31 11:49:46;;;;;;;2.60;1.20;;;;;;;;;;6217556;28;20044;-80
2021/12/31 11:53:02;;;;;;;2.22;1.52;;;;;;;;;;6220218;28;20049;-80
2021/12/31 11:56:04;;;;;;;2.58;1.45;;;;;;;;;;6215417;28;20046;-80
2021/12/31 11:59:05;;;;;;;1.95;1.50;;;;;;;;;;6220642;28;20179;-79
2021/12/31 12:02:17;;;;;;;2.60;1.40;;;;;;;;;;6212505;28;20049;-80
2021/12/31 12:05:22;;;;;;;1.33;1.15;;;;;;;;;;6219397;28;20061;-80
2021/12/31 12:08:24;;;;;;;2.58;1.27;;;;;;;;;;6217397;28;20069;-80
2021/12/31 12:12:01;;;;;;;1.50;1.20;;;;;;;;;;6232896;28;20053;-80
2021/12/31 12:15:15;;;;;;;2.88;1.13;;;;;;;;;;6211749;28;20116;-79
2021/12/31 12:18:53;;;;;;;3.50;1.42;;;;;;;;;;6217515;28;20089;-80
2021/12/31 12:21:54;;;;;;;4.15;1.50;;;;;;;;;;6218908;28;20985;-80
2021/12/31 12:25:01;;;;;;;2.13;1.08;;;;;;;;;;6215263;28;20049;-80
2021/12/31 12:28:09;;;;;;;2.67;1.40;;;;;;;;;;6217325;28;20705;-80
2021/12/31 12:31:16;;;;;;;3.00;1.52;;;;;;;;;;6207387;28;20069;-80
2021/12/31 12:34:28;;;;;;;2.08;1.38;;;;;;;;;;6216124;28;20138;-80
2021/12/31 12:37:30;;;;;;;2.28;1.20;;;;;;;;;;6216565;28;20113;-79
2021/12/31 12:40:48;;;;;;;3.38;1.95;;;;;;;;;;6218246;28;20046;-79
2021/12/31 12:43:50;;;;;;;2.85;1.30;;;;;;;;;;6220841;28;20104;-79
2021/12/31 12:46:57;;;;;;;1.88;1.33;;;;;;;;;;6209969;28;20119;-80
2021/12/31 12:50:04;;;;;;;3.85;1.30;;;;;;;;;;6219424;28;20180;-80
2021/12/31 12:53:07;;;;;;;2.85;1.45;;;;;;;;;;6219827;28;20065;-80
2021/12/31 12:56:14;;;;;;;1.02;0.93;;;;;;;;;;6215831;28;20088;-79
2021/12/31 12:59:21;;;;;;;2.05;1.15;;;;;;;;;;6221845;28;20053;-79
2021/12/31 13:02:43;;;;;;;2.00;1.30;;;;;;;;;;6213293;28;20863;-79
2021/12/31 13:05:46;;;;;;;2.42;1.63;;;;;;;;;;6218928;28;20076;-80
2021/12/31 13:08:48;;;;;;;12.88;3.47;;;;;;;;;;6215879;28;20049;-79
2021/12/31 13:11:52;;;;;;;2.95;1.83;;;;;;;;;;6204472;28;20116;-80
2021/12/31 13:14:55;;;;;;;3.55;2.05;;;;;;;;;;6216683;28;20069;-81
2021/12/31 13:18:06;;;;;;;;;;;;;;;;;;6217631;28;20057;-79
2021/12/31 13:21:12;;;;;;;2.33;1.38;;;;;;;;;;6219910;28;19925;-79
2021/12/31 13:24:20;;;;;;;1.33;1.10;;;;;;;;;;6217092;28;20132;-79
2021/12/31 13:27:22;;;;;;;2.70;1.35;;;;;;;;;;6219293;28;20036;-80
2021/12/31 13:30:24;;;;;;;1.58;1.38;;;;;;;;;;6212624;28;20069;-80
2021/12/31 13:33:30;;;;;;;3.33;1.20;;;;;;;;;;6192366;28;20099;-79
2021/12/31 13:36:33;;;;;;;2.30;1.00;;;;;;;;;;6210882;28;20499;-80
2021/12/31 13:39:39;;;;;;;3.33;1.17;;;;;;;;;;6217300;28;20092;-80
2021/12/31 13:42:44;;;;;;;1.70;1.13;;;;;;;;;;6213251;28;20419;-78
2021/12/31 13:45:46;;;;;;;1.92;1.13;;;;;;;;;;6204148;28;20046;-80
2021/12/31 13:48:48;;;;;;;1.92;1.40;;;;;;;;;;6220072;28;20772;-79
2021/12/31 13:51:49;;;;;;;2.22;1.10;;;;;;;;;;6220660;28;20207;-79
2021/12/31 13:54:54;;;;;;;2.13;1.02;;;;;;;;;;6221549;28;20065;-79
2021/12/31 13:58:05;;;;;;;1.30;1.20;;;;;;;;;;6223371;28;20076;-80
2021/12/31 14:01:12;;;;;;;2.97;1.13;;;;;;;;;;6208867;28;20050;-80
2021/12/31 14:04:15;;;;;;;4.10;1.40;;;;;;;;;;6200026;28;20047;-80
2021/12/31 14:07:19;;;;;;;3.42;1.70;;;;;;;;;;6200578;28;20049;-79
2021/12/31 14:10:32;;;;;;;5.30;2.42;;;;;;;;;;6217710;28;20045;-79
2021/12/31 14:13:38;;;;;;;3.97;1.77;;;;;;;;;;6224481;28;20523;-79
2021/12/31 14:16:40;;;;;;;4.35;1.50;;;;;;;;;;6214832;28;20447;-80
2021/12/31 14:19:42;;;;;;;2.20;1.17;;;;;;;;;;6224026;28;20121;-80
2021/12/31 14:22:44;;;;;;;1.75;1.20;;;;;;;;;;6223169;28;20042;-80
2021/12/31 14:25:46;;;;;;;1.60;1.25;;;;;;;;;;6220880;28;20061;-80
2021/12/31 14:28:48;;;;;;;1.90;1.25;;;;;;;;;;6221293;28;20095;-79
2021/12/31 14:31:50;;;;;;;2.20;1.40;;;;;;;;;;6221226;28;20053;-80
2021/12/31 14:34:53;;;;;;;1.83;1.10;;;;;;;;;;6223020;28;20037;-79
2021/12/31 14:37:55;;;;;;;;;;;;;;;;;;6238283;28;20080;-79
2021/12/31 14:41:02;;;;;;;2.28;1.33;;;;;;;;;;6220802;28;19926;-79
2021/12/31 14:44:04;;;;;;;3.95;2.65;;;;;;;;;;6221806;28;20057;-80
2021/12/31 14:47:06;;;;;;;5.30;3.65;;;;;;;;;;6219850;28;20050;-81
2021/12/31 14:50:11;;;;;;;11.25;6.38;;;;;;;;;;6241069;28;20046;-79
2021/12/31 14:53:13;;;;;;;3.78;2.05;;;;;;;;;;6225428;28;20060;-79
2021/12/31 14:56:14;;;;;;;4.07;2.15;;;;;;;;;;6214229;28;20117;-79
2021/12/31 14:59:16;;;;;;;1.92;1.25;;;;;;;;;;6215114;28;20094;-79
2021/12/31 15:02:18;;;;;;;1.73;1.45;;;;;;;;;;6210372;28;20113;-79
2021/12/31 15:05:21;;;;;;;2.92;1.80;;;;;;;;;;6238760;28;20052;-78
2021/12/31 15:08:22;;;;;;;2.67;1.33;;;;;;;;;;6255334;28;20076;-78
2021/12/31 15:11:24;;;;;;;1.98;1.23;;;;;;;;;;6233989;28;20120;-79
2021/12/31 15:14:26;;;;;;;2.20;1.40;;;;;;;;;;6219987;28;20102;-79
2021/12/31 15:17:28;;;;;;;3.58;1.67;;;;;;;;;;6222396;28;20046;-80
2021/12/31 15:20:30;;;;;;;2.20;1.23;;;;;;;;;;6220877;28;20053;-80
2021/12/31 15:23:34;;;;;;;2.20;1.50;;;;;;;;;;6229330;28;20054;-79
2021/12/31 15:26:40;;;;;;;2.42;1.40;;;;;;;;;;6234912;28;20038;-79
2021/12/31 15:29:43;;;;;;;3.75;1.50;;;;;;;;;;6246381;28;20057;-83
2021/12/31 15:32:45;;;;;;;3.28;1.63;;;;;;;;;;6235385;28;20049;-80
2021/12/31 15:35:46;;;;;;;2.80;1.67;;;;;;;;;;6225590;28;20049;-80
2021/12/31 15:38:48;;;;;;;3.28;2.30;;;;;;;;;;6226956;28;20551;-80
2021/12/31 15:41:50;;;;;;;2.42;1.40;;;;;;;;;;6224111;28;20057;-79
2021/12/31 15:44:51;;;;;;;4.70;1.48;;;;;;;;;;6223031;28;20427;-78
2021/12/31 15:47:53;;;;;;;1.80;1.33;;;;;;;;;;6223070;28;20126;-79
2021/12/31 15:50:55;;;;;;;3.00;1.50;;;;;;;;;;6228514;28;20041;-79
2021/12/31 15:53:57;;;;;;;2.08;1.40;;;;;;;;;;6221653;28;20056;-79
2021/12/31 15:56:59;;;;;;;2.33;1.33;;;;;;;;;;6225949;28;20452;-79
2021/12/31 16:00:04;;;;;;;2.60;1.52;;;;;;;;;;6197086;28;20049;-79
2021/12/31 16:03:12;;;;;;;2.95;2.03;;;;;;;;;;6210955;28;20049;-80
2021/12/31 16:06:14;;;;;;;3.35;1.92;;;;;;;;;;6221961;28;20042;-79
2021/12/31 16:09:15;;;;;;;3.15;2.00;;;;;;;;;;6233353;28;20052;-79
2021/12/31 16:12:17;;;;;;;3.03;1.95;;;;;;;;;;6215525;28;20046;-79
2021/12/31 16:15:38;;;;;;;2.72;1.80;;;;;;;;;;6195167;28;20049;-80
2021/12/31 16:18:40;;;;;;;2.45;1.92;;;;;;;;;;6200862;28;20046;-79
2021/12/31 16:21:42;;;;;;;2.45;1.70;;;;;;;;;;6194336;28;20053;-79
2021/12/31 16:24:43;;;;;;;2.65;2.03;;;;;;;;;;6184423;28;20053;-79
2021/12/31 16:28:06;;;;;;;2.85;1.80;;;;;;;;;;6213799;28;20515;-78
2021/12/31 16:31:09;;;;;;;3.33;1.60;;;;;;;;;;6191401;28;20054;-79
2021/12/31 16:34:11;;;;;;;4.95;1.85;;;;;;;;;;6221161;28;20414;-79
2021/12/31 16:37:13;;;;;;;2.83;1.95;;;;;;;;;;6222960;28;20847;-79
2021/12/31 16:40:17;;;;;;;2.83;2.08;;;;;;;;;;6214381;28;20121;-79
2021/12/31 16:43:19;;;;;;;4.85;2.00;;;;;;;;;;6223884;28;20042;-79
2021/12/31 16:46:21;;;;;;;2.53;1.75;;;;;;;;;;6223822;28;20125;-79
2021/12/31 16:49:22;;;;;;;2.25;1.50;;;;;;;;;;6228374;28;20046;-79
2021/12/31 16:52:24;;;;;;;4.55;2.00;;;;;;;;;;6215877;28;20381;-80
2021/12/31 16:55:26;;;;;;;2.97;1.58;;;;;;;;;;6194981;28;20046;-79
2021/12/31 16:58:29;;;;;;;4.03;2.17;;;;;;;;;;6227147;28;20056;-80
2021/12/31 17:01:30;;;;;;;4.55;2.58;;;;;;;;;;6210643;28;20471;-79
2021/12/31 17:04:34;;;;;;;2.72;1.70;;;;;;;;;;6217549;28;20049;-79
2021/12/31 17:07:36;;;;;;;6.35;3.60;;;;;;;;;;6219127;28;20129;-80
2021/12/31 17:10:38;;;;;;;5.47;3.50;;;;;;;;;;6231669;28;20037;-80
2021/12/31 17:13:39;;;;;;;4.63;2.13;;;;;;;;;;6218485;28;20129;-80
2021/12/31 17:16:41;;;;;;;9.45;6.05;;;;;;;;;;6208146;28;20077;-79
2021/12/31 17:19:47;;;;;;;4.15;2.00;;;;;;;;;;6217224;28;20062;-80
2021/12/31 17:22:50;;;;;;;2.10;1.60;;;;;;;;;;6233210;28;20117;-80
2021/12/31 17:25:53;;;;;;;5.03;2.70;;;;;;;;;;6227991;28;20045;-80
2021/12/31 17:28:55;;;;;;;2.55;1.73;;;;;;;;;;6226793;28;20053;-80
2021/12/31 17:31:57;;;;;;;3.92;1.80;;;;;;;;;;6215925;28;20038;-81
2021/12/31 17:35:01;;;;;;;2.17;1.63;;;;;;;;;;6225536;28;20056;-80
2021/12/31 17:38:05;;;;;;;3.28;1.60;;;;;;;;;;6219164;28;20046;-81
2021/12/31 17:41:14;;;;;;;3.72;1.90;;;;;;;;;;6238259;28;20786;-80
2021/12/31 17:44:16;;;;;;;2.83;1.90;;;;;;;;;;6249242;28;20045;-81
2021/12/31 17:47:17;;;;;;;4.40;3.05;;;;;;;;;;6224223;28;20040;-80
2021/12/31 17:50:20;;;;;;;3.03;2.13;;;;;;;;;;6224226;28;20145;-79
2021/12/31 17:53:22;;;;;;;4.95;2.15;;;;;;;;;;6225304;28;20050;-80
2021/12/31 17:56:24;;;;;;;5.03;2.63;;;;;;;;;;6223274;28;20392;-80
2021/12/31 17:59:25;;;;;;;3.50;2.20;;;;;;;;;;6224115;28;20125;-81
2021/12/31 18:02:27;;;;;;;5.65;2.30;;;;;;;;;;6215640;28;20112;-80
2021/12/31 18:05:29;;;;;;;5.68;3.25;;;;;;;;;;6223980;28;20082;-80
2021/12/31 18:08:30;;;;;;;9.68;4.80;;;;;;;;;;6223347;28;20181;-81
2021/12/31 18:11:32;;;;;;;8.07;4.05;;;;;;;;;;6223632;28;20132;-79
2021/12/31 18:14:34;;;;;;;2.92;2.40;;;;;;;;;;6220662;28;20056;-80
2021/12/31 18:17:35;;;;;;;3.97;2.95;;;;;;;;;;6216470;28;20046;-81
2021/12/31 18:20:37;;;;;;;4.72;2.70;;;;;;;;;;6221519;28;20048;-81
2021/12/31 18:23:39;;;;;;;3.80;2.17;;;;;;;;;;6221581;28;20042;-80
2021/12/31 18:26:40;;;;;;;6.60;3.42;;;;;;;;;;6212317;28;20050;-81
2021/12/31 18:29:43;;;;;;;5.07;2.55;;;;;;;;;;6218462;28;20049;-80